Westhampton, NY

9:10 AM EST on February 25, 2017 (GMT -0500)
56 South Country Road | | Change Station
Active Advisory: Dense Fog Advisory

Elev 32 ft 40.83 °N, 72.63 °W | Updated 0 second ago

Mostly Cloudy
Mostly Cloudy
53.3 °F
Feels Like 53.3 °F
N
4.0
Wind Variable Wind from SE
Gusts 14.0 mph

Today
High -- | Low -- °F
--% Chance of Precip.
Yesterday
High -- | Low -- °F
Precip. -- in
Pressure 29.81 in
Visibility 10.0 miles
Clouds Mostly Cloudy 500 ft
Dew Point 53 °F
Humidity 99%
Rainfall 0.00 in
Snow Depth Not available.
6:30 AM 5:37 PM
Waning Crescent, 1% visible
METAR KFOK 251353Z 14008KT 10SM BKN005 13/11 A2982 RMK AO2 SLP095 T01280111 $
Pressure 29.81 in
Visibility 10.0 miles
Clouds Mostly Cloudy 500 ft
Dew Point 53 °F
Humidity 99%
Rainfall 0.00 in
Snow Depth Not available.
6:30 AM 5:37 PM
Waning Crescent, 1% visible
METAR KFOK 251353Z 14008KT 10SM BKN005 13/11 A2982 RMK AO2 SLP095 T01280111 $

Get Your Daily Forecast Email!

Thanks for signing up!

Be on the lookout for a verification email in your inbox.

You'll start receiving the daily forecast at 8 AM.

×

10-Day Weather Forecast

Almanac

Astronomy

Feb. 25, 2017 Rise Set
Actual Time
Civil Twilight
Nautical Twilight
Astronomical Twilight
Moon
Length of Visible Light
Length of Day
Tomorrow will be .
, % of the Moon is Illuminated

Today's Extremes

State Highs State Lows

Community

WunderPhotos

Upload Photos

1,962,540 photos uploaded!

WunderBlog® & News

Nearby

Air Quality

  Air Quality AQ Index Pollutant
Not available.

Snow Depth

Station Depth Elevation

Earthquake Activity

City Distance Mag. Time & Date
Minimum magnitude displayed is 2.5.

Coastal Water Temperatures

Place Temperature

Stations

Nearby Weather Stations

Station Location Temp. Windchill Dew Point Humidity Wind Precip. Elev Updated Type
                   

Watches & Warnings

Dense Fog Advisory
Issued: 7:33 AM EST Feb. 25, 2017 – National Weather Service

... Dense fog advisory remains in effect until 11 am EST this
morning...

* visibilities... one quarter mile or less at times.

* Timing... until 11 a.M.

* Impacts... hazardous driving conditions due to reduced
            visibility.

Precautionary/preparedness actions...

A dense fog advisory means visibilities will frequently be
reduced to one quarter mile or less. If driving... slow down... use
your low beam headlights... and leave plenty of distance ahead of
you in case a sudden stop is needed.